OOCL Nagoya — VRFX8 — position and weather

sailwx.info

Track history (hours):
 
Tides and Currents Weather Stations Pressure Air Temp Water Temp Dewpoint Dewpoint Depression Visibility Wind Speed Wind Dir Waves Ship Positions

OOCL Nagoya

Last reported at 2016-Aug-23 23:24 UTC. Time now 2016-Aug-24 01:30 UTC.
Position N 22°09' E 113°51'.

Length 261 m; draft 10.7 m.

Type: Cargo ship. MMSI: 477627900.

Date/timePositionNaut miles runAvg speedWind from/ knotsBaromVisibWave heightAir tempDewpointWater temp
2016-Aug-23 23:24N 22°09' E 113°51'1113.3
2016-Aug-23 22:33N 22°20' E 113°49'9 8.6
2016-Aug-23 21:33N 22°27' E 113°54'0 0.1
2016-Aug-23 20:29N 22°27' E 113°54'0 0.0
2016-Aug-23 19:29N 22°27' E 113°54'0 0.0
2016-Aug-23 18:29N 22°27' E 113°54'0 0.0
2016-Aug-23 17:29N 22°27' E 113°54'0 0.0
2016-Aug-23 16:29N 22°27' E 113°54'0 0.0
2016-Aug-23 15:23N 22°27' E 113°54'0 0.0
2016-Aug-23 14:29N 22°27' E 113°54'0 0.0
2016-Aug-23 13:29N 22°27' E 113°54'0 0.0
2016-Aug-23 12:29N 22°27' E 113°54'0 0.0
2016-Aug-23 11:17N 22°27' E 113°54'0 0.0
2016-Aug-23 10:29N 22°27' E 113°54'4 3.9
2016-Aug-23 09:33N 22°24' E 113°54'11 9.7
2016-Aug-23 08:27N 22°20' E 114°05'2 0.1
2016-Aug-22 19:33N 22°19' E 114°06'19 9.3
2016-Aug-22 17:33N 22°08' E 114°23'30412.5
2016-Aug-21 17:14N 22°30' E 119°50'913.2
2016-Aug-21 16:33N 22°31' E 119°60'1313.0
2016-Aug-21 15:33N 22°33' E 120°14'5 4.6
2016-Aug-21 14:33N 22°34' E 120°18'0 0.0
2016-Aug-21 13:29N 22°34' E 120°18'0 0.0
2016-Aug-21 12:23N 22°34' E 120°18'0 0.1
2016-Aug-21 11:29N 22°34' E 120°18'0 0.1
2016-Aug-21 10:29N 22°34' E 120°18'0 0.0
2016-Aug-21 09:29N 22°34' E 120°18'0 0.0
2016-Aug-21 08:29N 22°34' E 120°18'0 0.0
2016-Aug-21 07:29N 22°34' E 120°18'0 0.0
2016-Aug-21 06:33N 22°34' E 120°18'5 5.0
2016-Aug-21 05:33N 22°32' E 120°14'1010.4
2016-Aug-21 04:33N 22°41' E 120°08'  
2016-Aug-18 09:34N 34°06' E 134°57'1414.3
2016-Aug-18 08:34N 34°20' E 134°59'1919.2
2016-Aug-18 07:34N 34°34' E 135°14'5 4.8
2016-Aug-18 06:29N 34°39' E 135°14'0 0.0
2016-Aug-18 04:29N 34°39' E 135°14'0 0.0
2016-Aug-18 03:29N 34°39' E 135°14'0 0.0
2016-Aug-18 02:23N 34°39' E 135°14'0 0.0
2016-Aug-18 01:29N 34°39' E 135°14'0 0.0
2016-Aug-18 00:29N 34°39' E 135°14'0 0.0
2016-Aug-17 23:29N 34°39' E 135°14'0 0.4
2016-Aug-17 22:33N 34°39' E 135°15'1010.4
2016-Aug-17 21:33N 34°30' E 135°10'1817.7
2016-Aug-17 20:34N 34°14' E 134°59'1313.3
2016-Aug-17 19:33N 34°01' E 135°01'238 5.0
2016-Aug-15 20:20N 35°04' E 139°39'1013.1
2016-Aug-15 19:33N 35°13' E 139°46'1212.5
2016-Aug-15 18:33N 35°25' E 139°44'1110.9
2016-Aug-15 17:34N 35°35' E 139°47'1 0.9
2016-Aug-15 16:31N 35°36' E 139°47'0 0.0
2016-Aug-15 15:31N 35°36' E 139°47'0 0.0
2016-Aug-15 14:31N 35°36' E 139°47'0 0.0
2016-Aug-15 13:31N 35°36' E 139°47'0 0.0
2016-Aug-15 12:31N 35°36' E 139°47'0 0.0
2016-Aug-15 11:31N 35°36' E 139°47'0 0.0
2016-Aug-15 10:31N 35°36' E 139°47'0 0.0
2016-Aug-15 09:31N 35°36' E 139°47'0 0.0
2016-Aug-15 08:31N 35°36' E 139°47'0 0.0
2016-Aug-15 07:31N 35°36' E 139°47'0 0.0
2016-Aug-15 06:31N 35°36' E 139°47'0 0.0
2016-Aug-15 04:31N 35°36' E 139°47'0 0.0
2016-Aug-15 03:33N 35°36' E 139°47'6 6.1
2016-Aug-15 02:33N 35°32' E 139°52'1413.9
2016-Aug-15 01:33N 35°19' E 139°44'1110.7
2016-Aug-15 00:33N 35°09' E 139°46'1111.5
2016-Aug-14 23:33N 34°59' E 139°40'  
Track history (hours):
 
Tides and Currents Weather Stations Pressure Air Temp Water Temp Dewpoint Dewpoint Depression Visibility Wind Speed Wind Dir Waves Ship Positions

OOCL Nagoya

Last reported at 2016-Aug-23 23:24 UTC. Time now 2016-Aug-24 01:30 UTC.
Position N 22°09' E 113°51'.

Length 261 m; draft 10.7 m.

Type: Cargo ship. MMSI: 477627900.

Date/timePositionNaut miles runAvg speedWind from/ knotsBaromVisibWave heightAir tempDewpointWater temp
2016-Aug-23 23:24N 22°09' E 113°51'1113.3
2016-Aug-23 22:33N 22°20' E 113°49'9 8.6
2016-Aug-23 21:33N 22°27' E 113°54'0 0.1
2016-Aug-23 20:29N 22°27' E 113°54'0 0.0
2016-Aug-23 19:29N 22°27' E 113°54'0 0.0
2016-Aug-23 18:29N 22°27' E 113°54'0 0.0
2016-Aug-23 17:29N 22°27' E 113°54'0 0.0
2016-Aug-23 16:29N 22°27' E 113°54'0 0.0
2016-Aug-23 15:23N 22°27' E 113°54'0 0.0
2016-Aug-23 14:29N 22°27' E 113°54'0 0.0
2016-Aug-23 13:29N 22°27' E 113°54'0 0.0
2016-Aug-23 12:29N 22°27' E 113°54'0 0.0
2016-Aug-23 11:17N 22°27' E 113°54'0 0.0
2016-Aug-23 10:29N 22°27' E 113°54'4 3.9
2016-Aug-23 09:33N 22°24' E 113°54'11 9.7
2016-Aug-23 08:27N 22°20' E 114°05'2 0.1
2016-Aug-22 19:33N 22°19' E 114°06'19 9.3
2016-Aug-22 17:33N 22°08' E 114°23'30412.5
2016-Aug-21 17:14N 22°30' E 119°50'913.2
2016-Aug-21 16:33N 22°31' E 119°60'1313.0
2016-Aug-21 15:33N 22°33' E 120°14'5 4.6
2016-Aug-21 14:33N 22°34' E 120°18'0 0.0
2016-Aug-21 13:29N 22°34' E 120°18'0 0.0
2016-Aug-21 12:23N 22°34' E 120°18'0 0.1
2016-Aug-21 11:29N 22°34' E 120°18'0 0.1
2016-Aug-21 10:29N 22°34' E 120°18'0 0.0
2016-Aug-21 09:29N 22°34' E 120°18'0 0.0
2016-Aug-21 08:29N 22°34' E 120°18'0 0.0
2016-Aug-21 07:29N 22°34' E 120°18'0 0.0
2016-Aug-21 06:33N 22°34' E 120°18'5 5.0
2016-Aug-21 05:33N 22°32' E 120°14'1010.4
2016-Aug-21 04:33N 22°41' E 120°08'  
2016-Aug-18 09:34N 34°06' E 134°57'1414.3
2016-Aug-18 08:34N 34°20' E 134°59'1919.2
2016-Aug-18 07:34N 34°34' E 135°14'5 4.8
2016-Aug-18 06:29N 34°39' E 135°14'0 0.0
2016-Aug-18 04:29N 34°39' E 135°14'0 0.0
2016-Aug-18 03:29N 34°39' E 135°14'0 0.0
2016-Aug-18 02:23N 34°39' E 135°14'0 0.0
2016-Aug-18 01:29N 34°39' E 135°14'0 0.0
2016-Aug-18 00:29N 34°39' E 135°14'0 0.0
2016-Aug-17 23:29N 34°39' E 135°14'0 0.4
2016-Aug-17 22:33N 34°39' E 135°15'1010.4
2016-Aug-17 21:33N 34°30' E 135°10'1817.7
2016-Aug-17 20:34N 34°14' E 134°59'1313.3
2016-Aug-17 19:33N 34°01' E 135°01'238 5.0
2016-Aug-15 20:20N 35°04' E 139°39'1013.1
2016-Aug-15 19:33N 35°13' E 139°46'1212.5
2016-Aug-15 18:33N 35°25' E 139°44'1110.9
2016-Aug-15 17:34N 35°35' E 139°47'1 0.9
2016-Aug-15 16:31N 35°36' E 139°47'0 0.0
2016-Aug-15 15:31N 35°36' E 139°47'0 0.0
2016-Aug-15 14:31N 35°36' E 139°47'0 0.0
2016-Aug-15 13:31N 35°36' E 139°47'0 0.0
2016-Aug-15 12:31N 35°36' E 139°47'0 0.0
2016-Aug-15 11:31N 35°36' E 139°47'0 0.0
2016-Aug-15 10:31N 35°36' E 139°47'0 0.0
2016-Aug-15 09:31N 35°36' E 139°47'0 0.0
2016-Aug-15 08:31N 35°36' E 139°47'0 0.0
2016-Aug-15 07:31N 35°36' E 139°47'0 0.0
2016-Aug-15 06:31N 35°36' E 139°47'0 0.0
2016-Aug-15 04:31N 35°36' E 139°47'0 0.0
2016-Aug-15 03:33N 35°36' E 139°47'6 6.1
2016-Aug-15 02:33N 35°32' E 139°52'1413.9
2016-Aug-15 01:33N 35°19' E 139°44'1110.7
2016-Aug-15 00:33N 35°09' E 139°46'1111.5
2016-Aug-14 23:33N 34°59' E 139°40'  

Dump ship's entire track history